Time;durP1;ratioP1;P1;durP2;ratioP2;P2;SDS_P1;SDS_P2;PMS_P1;PMS_P2;Temp;Humidity;BMP_temperature;BMP_pressure;BME280_temperature;BME280_humidity;BME280_pressure;Samples;Min_cycle;Max_cycle;Signal;HPM_P1;HPM_P2
2023/10/08 00:00:46;;;;;;;2.30;1.57;;;15.50;47.90;;;;;;5139164;27;20476;-78
2023/10/08 00:03:13;;;;;;;4.17;0.87;;;15.50;48.30;;;;;;5137878;27;20540;-79
2023/10/08 00:05:41;;;;;;;1.30;0.73;;;15.50;47.50;;;;;;5140446;27;20594;-78
2023/10/08 00:08:09;;;;;;;1.30;0.90;;;15.50;46.90;;;;;;5145630;27;20451;-78
2023/10/08 00:10:37;;;;;;;1.53;1.13;;;15.70;46.10;;;;;;5142225;27;20467;-79
2023/10/08 00:13:07;;;;;;;5.20;1.60;;;15.80;45.80;;;;;;5141137;27;20453;-79
2023/10/08 00:15:36;;;;;;;1.47;0.93;;;15.90;45.40;;;;;;5134577;27;20461;-79
2023/10/08 00:18:04;;;;;;;1.70;0.80;;;16.00;44.20;;;;;;5143378;27;20467;-79
2023/10/08 00:20:35;;;;;;;1.97;1.10;;;16.30;43.40;;;;;;5137847;27;20751;-78
2023/10/08 00:23:07;;;;;;;4.60;1.87;;;16.50;43.00;;;;;;5140907;27;20468;-78
2023/10/08 00:25:40;;;;;;;1.37;0.80;;;16.70;42.30;;;;;;5139340;27;20777;-79
2023/10/08 00:28:13;;;;;;;2.73;1.37;;;16.80;42.40;;;;;;5141851;27;20454;-78
2023/10/08 00:30:42;;;;;;;2.90;0.90;;;17.00;42.20;;;;;;5139023;27;20452;-78
2023/10/08 00:33:11;;;;;;;2.50;0.90;;;17.10;41.80;;;;;;5135872;27;20535;-78
2023/10/08 00:35:42;;;;;;;4.83;1.20;;;17.20;41.70;;;;;;5132620;27;20580;-79
2023/10/08 00:38:14;;;;;;;2.37;1.00;;;17.40;41.30;;;;;;5140936;27;20456;-79
2023/10/08 00:40:45;;;;;;;2.43;1.23;;;17.50;41.10;;;;;;5137748;27;20457;-79
2023/10/08 00:43:31;;;;;;;1.20;0.77;;;17.60;40.90;;;;;;5147190;27;20444;-79
2023/10/08 00:45:59;;;;;;;1.33;0.73;;;17.60;40.40;;;;;;5137711;27;20982;-79
2023/10/08 00:48:28;;;;;;;2.50;1.10;;;17.60;40.60;;;;;;5138244;27;20502;-78
2023/10/08 00:51:08;;;;;;;1.60;0.97;;;17.50;41.20;;;;;;5142285;27;20532;-79
2023/10/08 00:53:39;;;;;;;2.00;1.17;;;17.40;41.90;;;;;;5141212;27;20464;-76
2023/10/08 00:56:12;;;;;;;1.50;0.90;;;17.30;42.80;;;;;;5137099;27;20842;-76
2023/10/08 00:58:41;;;;;;;2.60;1.27;;;17.20;42.90;;;;;;5136930;27;20560;-76
2023/10/08 01:01:10;;;;;;;1.93;1.13;;;17.20;42.80;;;;;;5146289;27;20512;-79
2023/10/08 01:03:43;;;;;;;2.40;1.40;;;17.10;43.40;;;;;;5136799;27;20532;-76
2023/10/08 01:06:11;;;;;;;3.90;1.33;;;17.10;43.50;;;;;;5136496;27;20475;-76
2023/10/08 01:08:47;;;;;;;3.17;1.60;;;17.10;43.90;;;;;;5142405;27;20466;-77
2023/10/08 01:11:25;;;;;;;3.43;0.90;;;17.10;43.40;;;;;;5144049;27;20541;-77
2023/10/08 01:13:55;;;;;;;2.30;1.23;;;17.20;43.20;;;;;;5133366;27;20500;-77
2023/10/08 01:16:22;;;;;;;3.13;1.00;;;17.20;43.20;;;;;;5135280;27;20464;-77
2023/10/08 01:18:53;;;;;;;2.40;1.00;;;17.20;43.20;;;;;;5138121;27;20460;-78
2023/10/08 01:21:36;;;;;;;4.10;2.07;;;17.30;43.20;;;;;;5131462;27;20453;-76
2023/10/08 01:24:07;;;;;;;1.50;0.90;;;17.30;42.50;;;;;;5137427;27;20946;-78
2023/10/08 01:26:38;;;;;;;3.43;1.10;;;17.40;42.90;;;;;;5136415;27;20467;-77
2023/10/08 01:29:07;;;;;;;2.43;0.90;;;17.40;42.70;;;;;;5138220;27;20872;-77
2023/10/08 01:31:34;;;;;;;2.60;1.23;;;17.40;42.70;;;;;;5136547;27;20443;-77
2023/10/08 01:34:04;;;;;;;1.50;1.00;;;17.40;42.90;;;;;;5130308;27;20494;-77
2023/10/08 01:36:32;;;;;;;9.80;1.47;;;17.30;42.90;;;;;;5131357;27;20560;-77
2023/10/08 01:39:01;;;;;;;1.97;1.00;;;17.40;42.80;;;;;;5145365;27;20448;-77
2023/10/08 01:41:30;;;;;;;5.47;1.43;;;17.50;42.30;;;;;;5141902;27;20927;-78
2023/10/08 01:43:59;;;;;;;3.93;1.03;;;17.50;41.70;;;;;;5131047;27;20492;-77
2023/10/08 01:46:27;;;;;;;2.53;1.27;;;17.60;41.80;;;;;;5129192;27;20544;-78
2023/10/08 01:49:03;;;;;;;3.70;1.47;;;17.60;41.60;;;;;;5136616;27;20464;-77
2023/10/08 01:51:37;;;;;;;4.00;1.00;;;17.60;42.20;;;;;;5139624;27;20962;-77
2023/10/08 01:54:10;;;;;;;1.77;0.97;;;17.60;42.20;;;;;;5138515;27;20546;-77
2023/10/08 01:56:41;;;;;;;3.93;0.87;;;17.60;41.70;;;;;;5143663;27;20997;-79
2023/10/08 01:59:09;;;;;;;3.13;1.27;;;17.70;41.50;;;;;;5136816;27;20583;-78
2023/10/08 02:01:38;;;;;;;3.10;1.57;;;17.80;41.50;;;;;;5133820;27;20519;-78
2023/10/08 02:04:07;;;;;;;5.37;1.20;;;17.70;41.90;;;;;;5139780;27;20509;-78
2023/10/08 02:06:34;;;;;;;1.90;1.30;;;17.70;41.70;;;;;;5135211;27;20491;-78
2023/10/08 02:09:07;;;;;;;3.73;1.00;;;17.70;42.20;;;;;;5140284;27;20441;-79
2023/10/08 02:11:44;;;;;;;2.87;1.33;;;17.70;42.00;;;;;;5128208;27;20453;-79
2023/10/08 02:14:12;;;;;;;3.37;1.77;;;17.70;42.20;;;;;;5135114;27;20570;-78
2023/10/08 02:16:40;;;;;;;1.63;0.70;;;17.70;42.40;;;;;;5129596;27;20862;-78
2023/10/08 02:19:10;;;;;;;6.10;1.27;;;17.70;42.00;;;;;;5135571;27;20460;-79
2023/10/08 02:21:39;;;;;;;2.70;0.97;;;17.60;42.30;;;;;;5138315;27;20447;-78
2023/10/08 02:24:07;;;;;;;1.60;1.00;;;17.60;42.40;;;;;;5129959;27;20471;-79
2023/10/08 02:26:34;;;;;;;2.03;0.87;;;17.70;42.10;;;;;;5140176;27;20583;-77
2023/10/08 02:29:06;;;;;;;3.03;1.10;;;17.70;42.20;;;;;;5137545;27;20527;-78
2023/10/08 02:31:33;;;;;;;3.67;1.60;;;17.70;41.90;;;;;;5133496;27;20453;-78
2023/10/08 02:33:59;;;;;;;6.50;1.43;;;17.70;41.70;;;;;;5145483;27;20464;-78
2023/10/08 02:36:26;;;;;;;3.17;2.10;;;17.70;41.60;;;;;;5131952;27;20453;-78
2023/10/08 02:38:54;;;;;;;2.20;1.13;;;17.80;41.90;;;;;;5145071;27;20468;-78
2023/10/08 02:41:24;;;;;;;3.33;1.77;;;17.70;41.60;;;;;;5143135;27;20500;-79
2023/10/08 02:43:51;;;;;;;1.37;1.10;;;17.70;42.00;;;;;;5140138;27;20486;-78
2023/10/08 02:46:19;;;;;;;1.57;0.70;;;17.60;41.50;;;;;;5138640;27;20566;-78
2023/10/08 02:48:47;;;;;;;2.60;1.00;;;17.60;42.00;;;;;;5140070;27;21157;-78
2023/10/08 02:51:14;;;;;;;1.57;0.90;;;17.60;41.30;;;;;;5140532;27;20445;-78
2023/10/08 02:53:43;;;;;;;4.27;1.40;;;17.70;40.80;;;;;;5141807;27;20546;-79
2023/10/08 02:56:13;;;;;;;1.90;1.30;;;17.80;39.90;;;;;;5146862;27;20472;-79
2023/10/08 02:58:43;;;;;;;3.30;1.93;;;17.70;40.50;;;;;;5146173;27;20520;-79
2023/10/08 03:01:12;;;;;;;1.80;1.27;;;17.70;40.50;;;;;;5142052;27;20467;-79
2023/10/08 03:03:42;;;;;;;3.70;1.60;;;17.70;39.90;;;;;;5142816;27;20543;-78
2023/10/08 03:06:14;;;;;;;2.43;1.40;;;17.80;39.80;;;;;;5141915;27;20511;-78
2023/10/08 03:08:42;;;;;;;2.53;1.20;;;17.80;39.70;;;;;;5138794;27;20444;-79
2023/10/08 03:11:16;;;;;;;2.87;1.53;;;17.70;39.90;;;;;;5140502;27;20917;-78
2023/10/08 03:13:46;;;;;;;3.80;1.20;;;17.70;40.50;;;;;;5147372;27;20447;-78
2023/10/08 03:16:14;;;;;;;2.20;0.90;;;17.60;40.90;;;;;;5136612;27;21034;-78
2023/10/08 03:18:45;;;;;;;2.33;0.80;;;17.60;40.90;;;;;;5141849;27;20535;-78
2023/10/08 03:21:22;;;;;;;2.90;0.90;;;17.60;40.60;;;;;;5133505;27;20453;-78
2023/10/08 03:23:50;;;;;;;3.37;1.37;;;17.60;40.10;;;;;;5137921;27;21151;-78
2023/10/08 03:26:33;;;;;;;2.23;1.13;;;17.60;41.00;;;;;;5144118;27;20568;-79
2023/10/08 03:29:06;;;;;;;3.50;0.87;;;17.60;40.90;;;;;;5131791;27;20533;-79
2023/10/08 03:31:49;;;;;;;2.70;1.27;;;17.50;41.10;;;;;;5139558;27;20856;-79
2023/10/08 03:34:19;;;;;;;2.60;1.57;;;17.50;40.90;;;;;;5136879;27;20468;-79
2023/10/08 03:36:49;;;;;;;8.83;1.27;;;17.50;41.20;;;;;;5131254;27;20468;-78
2023/10/08 03:39:18;;;;;;;2.17;0.97;;;17.40;41.10;;;;;;5136948;27;21651;-78
2023/10/08 03:41:58;;;;;;;2.73;1.07;;;17.40;41.10;;;;;;5145672;27;20531;-78
2023/10/08 03:44:25;;;;;;;2.03;1.20;;;17.40;41.20;;;;;;5134533;27;20487;-78
2023/10/08 03:46:52;;;;;;;1.40;0.90;;;17.40;41.40;;;;;;5140227;27;20483;-78
2023/10/08 03:49:26;;;;;;;2.07;0.80;;;17.30;41.60;;;;;;5139079;27;20962;-78
2023/10/08 03:51:53;;;;;;;2.60;0.90;;;17.30;41.80;;;;;;5137922;27;20445;-79
2023/10/08 03:54:29;;;;;;;4.20;1.40;;;17.40;42.00;;;;;;5136880;27;20532;-78
2023/10/08 03:56:57;;;;;;;4.40;1.90;;;17.40;41.90;;;;;;5146818;27;20447;-78
2023/10/08 03:59:34;;;;;;;3.53;1.50;;;17.40;42.00;;;;;;5142743;27;20452;-78
2023/10/08 04:02:13;;;;;;;3.20;1.83;;;17.40;42.00;;;;;;5142163;27;20524;-78
2023/10/08 04:04:50;;;;;;;6.47;1.27;;;17.30;42.30;;;;;;5140087;27;20511;-78
2023/10/08 04:07:44;;;;;;;1.03;0.80;;;17.30;42.40;;;;;;5143115;27;20736;-78
2023/10/08 04:10:34;;;;;;;3.27;1.00;;;17.30;42.90;;;;;;5136308;27;20468;-78
2023/10/08 04:13:01;;;;;;;3.20;1.20;;;17.20;43.00;;;;;;5137106;27;20459;-78
2023/10/08 04:15:28;;;;;;;2.60;1.37;;;17.20;43.20;;;;;;5138291;27;20854;-78
2023/10/08 04:17:56;;;;;;;2.70;0.90;;;17.20;43.70;;;;;;5142326;27;20767;-78
2023/10/08 04:20:38;;;;;;;3.87;1.70;;;17.10;43.70;;;;;;5143577;27;20581;-78
2023/10/08 04:23:13;;;;;;;2.13;1.10;;;17.00;44.10;;;;;;5140660;27;21011;-77
2023/10/08 04:25:41;;;;;;;3.57;1.57;;;17.00;44.30;;;;;;5143026;27;20467;-79
2023/10/08 04:28:13;;;;;;;3.33;1.00;;;17.00;44.40;;;;;;5144888;27;20534;-78
2023/10/08 04:30:41;;;;;;;4.00;0.90;;;17.00;44.70;;;;;;5145725;27;20456;-79
2023/10/08 04:33:12;;;;;;;3.20;1.20;;;16.90;44.50;;;;;;5141317;27;20467;-78
2023/10/08 04:35:47;;;;;;;1.60;1.13;;;16.80;45.30;;;;;;5133225;27;20870;-78
2023/10/08 04:38:17;;;;;;;2.33;1.10;;;16.80;45.20;;;;;;5137771;27;20555;-79
2023/10/08 04:40:48;;;;;;;2.53;1.30;;;16.80;45.60;;;;;;5144024;27;20442;-79
2023/10/08 04:43:19;;;;;;;3.30;1.80;;;16.70;45.90;;;;;;5142008;27;20539;-79
2023/10/08 04:45:50;;;;;;;2.70;1.10;;;16.70;45.80;;;;;;5139480;27;20482;-79
2023/10/08 04:48:20;;;;;;;2.53;0.70;;;16.70;46.20;;;;;;5147981;27;20547;-79
2023/10/08 04:50:57;;;;;;;2.73;1.00;;;16.60;46.70;;;;;;5144260;27;20493;-80
2023/10/08 04:53:31;;;;;;;2.07;0.90;;;16.60;46.90;;;;;;5139927;27;20464;-79
2023/10/08 04:56:05;;;;;;;4.13;1.30;;;16.60;46.90;;;;;;5144211;27;20516;-79
2023/10/08 04:58:36;;;;;;;3.67;1.20;;;16.50;47.00;;;;;;5138334;27;20452;-80
2023/10/08 05:04:23;;;;;;;4.67;0.80;;;16.50;47.40;;;;;;5095078;27;20617;-78
2023/10/08 05:07:16;;;;;;;3.90;1.57;;;16.50;47.10;;;;;;5081101;28;20461;-77
2023/10/08 05:10:10;;;;;;;4.00;1.10;;;16.60;47.10;;;;;;5077047;28;20542;-78
2023/10/08 05:12:45;;;;;;;1.50;0.87;;;16.60;47.10;;;;;;5086802;28;20442;-78
2023/10/08 05:15:32;;;;;;;2.50;1.17;;;16.70;47.10;;;;;;5070784;28;20462;-78
2023/10/08 05:18:13;;;;;;;6.43;1.33;;;16.60;47.40;;;;;;5073071;28;20454;-79
2023/10/08 05:20:58;;;;;;;5.10;1.70;;;16.70;47.40;;;;;;5080273;28;20542;-78
2023/10/08 05:26:20;;;;;;;3.70;1.13;;;16.60;48.30;;;;;;5077526;28;20486;-78
2023/10/08 05:29:00;;;;;;;2.40;1.40;;;16.60;48.50;;;;;;5072361;28;20467;-79
2023/10/08 05:31:46;;;;;;;7.27;1.70;;;16.60;48.60;;;;;;5067367;28;20457;-79
2023/10/08 05:34:18;;;;;;;5.60;0.83;;;16.70;48.20;;;;;;5078829;28;20469;-79
2023/10/08 05:39:40;;;;;;;2.87;1.07;;;16.80;47.90;;;;;;5075289;28;20446;-79
2023/10/08 05:42:13;;;;;;;4.43;1.60;;;16.90;48.10;;;;;;5068533;28;20495;-79
2023/10/08 05:44:45;;;;;;;4.43;1.20;;;16.90;47.90;;;;;;5071575;28;20483;-79
2023/10/08 05:47:38;;;;;;;5.77;1.60;;;16.90;48.00;;;;;;5074313;28;20446;-78
2023/10/08 05:53:02;;;;;;;4.07;1.87;;;17.10;47.80;;;;;;5071792;28;20438;-78
2023/10/08 05:55:34;;;;;;;4.20;1.77;;;17.20;47.30;;;;;;5078971;28;21004;-78
2023/10/08 05:58:24;;;;;;;4.63;1.57;;;17.20;47.70;;;;;;5084883;28;20454;-79
2023/10/08 06:01:08;;;;;;;4.53;1.63;;;17.20;48.00;;;;;;5075263;28;21129;-79
2023/10/08 06:03:59;;;;;;;4.83;2.10;;;17.10;47.70;;;;;;5065144;28;20498;-78
2023/10/08 06:06:37;;;;;;;3.43;1.23;;;17.20;48.00;;;;;;5077616;28;20505;-79
2023/10/08 06:09:21;;;;;;;5.17;1.50;;;17.10;47.90;;;;;;5078215;28;21054;-79
2023/10/08 06:12:06;;;;;;;4.93;1.10;;;17.10;48.20;;;;;;5072882;28;20604;-79
2023/10/08 06:14:52;;;;;;;4.10;1.13;;;17.10;48.50;;;;;;5057868;28;20443;-79
2023/10/08 06:17:33;;;;;;;5.90;1.17;;;17.10;48.70;;;;;;5065374;28;20811;-79
2023/10/08 06:20:10;;;;;;;2.43;1.53;;;17.10;48.50;;;;;;5068526;28;20443;-79
2023/10/08 06:22:41;;;;;;;4.43;2.30;;;17.10;49.20;;;;;;5064732;28;20558;-78
2023/10/08 06:25:23;;;;;;;3.77;1.77;;;17.10;49.40;;;;;;5054729;28;20868;-79
2023/10/08 06:27:53;;;;;;;4.10;1.10;;;17.10;49.50;;;;;;5061207;28;20489;-79
2023/10/08 06:30:21;;;;;;;4.00;1.63;;;17.10;49.50;;;;;;5062092;28;20528;-79
2023/10/08 06:32:50;;;;;;;1.63;0.83;;;17.20;49.60;;;;;;5060951;28;20455;-79
2023/10/08 06:35:18;;;;;;;1.87;1.40;;;17.10;50.20;;;;;;5062033;28;20471;-79
2023/10/08 06:37:49;;;;;;;4.73;0.90;;;17.20;49.80;;;;;;5061583;28;20464;-79
2023/10/08 06:43:03;;;;;;;2.33;0.60;;;17.30;50.50;;;;;;5061813;28;20476;-79
2023/10/08 06:45:32;;;;;;;4.87;1.00;;;17.40;50.20;;;;;;5064741;28;20448;-79
2023/10/08 06:48:05;;;;;;;2.10;1.67;;;17.40;51.00;;;;;;5071799;28;20466;-78
2023/10/08 06:50:35;;;;;;;3.73;2.13;;;17.40;51.60;;;;;;5062461;28;20949;-79
2023/10/08 06:53:06;;;;;;;2.30;1.90;;;17.50;51.30;;;;;;5067365;28;20791;-79
2023/10/08 06:55:35;;;;;;;2.33;1.40;;;17.60;50.00;;;;;;5064429;28;20465;-78
2023/10/08 06:58:05;;;;;;;3.93;1.13;;;17.60;50.40;;;;;;5067391;28;20947;-79
2023/10/08 07:00:39;;;;;;;3.90;1.80;;;17.70;51.30;;;;;;5060675;28;20998;-79
2023/10/08 07:03:08;;;;;;;4.50;1.20;;;17.70;50.50;;;;;;5060772;28;20507;-79
2023/10/08 07:05:40;;;;;;;1.80;0.90;;;17.80;50.40;;;;;;5064675;28;20816;-79
2023/10/08 07:08:08;;;;;;;2.93;0.93;;;17.90;50.70;;;;;;5062318;28;20463;-79
2023/10/08 07:10:36;;;;;;;1.67;0.90;;;18.00;50.70;;;;;;5060000;28;20528;-79
2023/10/08 07:13:04;;;;;;;3.13;1.97;;;18.00;51.20;;;;;;5048435;28;20460;-79
2023/10/08 07:15:32;;;;;;;7.03;1.37;;;17.90;52.00;;;;;;5053026;28;20915;-78
2023/10/08 07:18:08;;;;;;;2.50;1.37;;;17.90;51.30;;;;;;5055874;28;21132;-78
2023/10/08 07:20:39;;;;;;;2.50;1.20;;;18.00;51.70;;;;;;5057293;28;20549;-79
2023/10/08 07:23:18;;;;;;;3.27;1.03;;;18.00;51.60;;;;;;5053437;28;20490;-79
2023/10/08 07:25:53;;;;;;;3.07;1.60;;;18.00;52.10;;;;;;5060825;28;20456;-79
2023/10/08 07:28:20;;;;;;;1.63;1.20;;;18.00;53.10;;;;;;5056808;28;20470;-79
2023/10/08 07:30:49;;;;;;;3.53;1.30;;;18.00;53.40;;;;;;5053491;28;20602;-78
2023/10/08 07:33:19;;;;;;;2.27;0.80;;;18.00;54.00;;;;;;5059874;28;20452;-79
2023/10/08 07:35:56;;;;;;;1.97;1.60;;;18.00;54.50;;;;;;5052667;28;20487;-79
2023/10/08 07:38:27;;;;;;;1.77;0.80;;;18.00;54.80;;;;;;5063385;28;20450;-80
2023/10/08 07:40:56;;;;;;;4.40;1.13;;;18.00;54.90;;;;;;5067268;28;20454;-79
2023/10/08 07:43:23;;;;;;;3.00;1.90;;;18.00;54.70;;;;;;5065135;28;20577;-80
2023/10/08 07:45:53;;;;;;;1.93;0.90;;;18.00;54.90;;;;;;5061839;28;20470;-79
2023/10/08 07:48:22;;;;;;;3.13;0.93;;;18.00;56.10;;;;;;5059804;28;20827;-79
2023/10/08 07:50:50;;;;;;;5.13;2.17;;;18.00;56.30;;;;;;5059290;28;20469;-80
2023/10/08 07:53:20;;;;;;;3.37;1.13;;;18.00;57.10;;;;;;5068509;28;20474;-79
2023/10/08 07:55:47;;;;;;;9.57;1.70;;;18.00;56.70;;;;;;5061737;28;21000;-79
2023/10/08 07:58:17;;;;;;;2.60;0.77;;;18.00;58.60;;;;;;5058605;28;20544;-79
2023/10/08 08:00:51;;;;;;;3.33;1.33;;;18.00;58.20;;;;;;5063345;28;20800;-79
2023/10/08 08:03:21;;;;;;;3.67;2.10;;;18.00;58.00;;;;;;5061323;28;20565;-80
2023/10/08 08:05:52;;;;;;;2.60;1.23;;;18.10;57.90;;;;;;5070309;28;20513;-80
2023/10/08 08:08:22;;;;;;;2.00;0.80;;;18.00;59.30;;;;;;5055728;28;20453;-79
2023/10/08 08:10:50;;;;;;;5.33;0.80;;;18.00;59.40;;;;;;5056858;28;20798;-79
2023/10/08 08:13:20;;;;;;;4.80;1.37;;;18.00;59.80;;;;;;5057684;28;20483;-79
2023/10/08 08:15:50;;;;;;;3.63;1.10;;;17.90;61.40;;;;;;5060757;28;20459;-80
2023/10/08 08:18:22;;;;;;;6.50;1.90;;;17.90;60.50;;;;;;5064883;28;20919;-80
2023/10/08 08:20:49;;;;;;;4.00;1.37;;;17.90;59.50;;;;;;5062080;28;20927;-80
2023/10/08 08:23:17;;;;;;;2.97;1.37;;;17.90;60.70;;;;;;5059424;28;20519;-79
2023/10/08 08:25:55;;;;;;;4.30;3.90;;;17.90;60.40;;;;;;5061917;28;20911;-79
2023/10/08 08:28:24;;;;;;;3.43;2.37;;;17.90;63.30;;;;;;5059429;28;20598;-79
2023/10/08 08:30:55;;;;;;;4.83;1.40;;;17.90;63.10;;;;;;5063895;28;20455;-79
2023/10/08 08:33:23;;;;;;;5.03;1.27;;;17.90;62.50;;;;;;5064579;28;20448;-79
2023/10/08 08:35:59;;;;;;;4.80;1.37;;;17.90;62.40;;;;;;5065271;28;20479;-79
2023/10/08 08:38:26;;;;;;;5.70;4.43;;;17.90;62.20;;;;;;5066637;28;20534;-79
2023/10/08 08:41:06;;;;;;;4.50;1.70;;;17.90;61.60;;;;;;5062513;28;21118;-79
2023/10/08 08:43:35;;;;;;;8.13;1.30;;;17.90;61.60;;;;;;5067852;28;20491;-79
2023/10/08 08:46:06;;;;;;;5.67;1.50;;;17.80;61.40;;;;;;5069186;28;20839;-79
2023/10/08 08:48:35;;;;;;;4.70;1.60;;;17.80;61.80;;;;;;5072720;28;20462;-80
2023/10/08 08:51:03;;;;;;;4.43;1.40;;;17.80;62.20;;;;;;5069497;28;20547;-79
2023/10/08 08:53:29;;;;;;;3.50;1.03;;;17.80;63.40;;;;;;5062969;28;20956;-80
2023/10/08 08:55:57;;;;;;;7.80;1.63;;;17.80;64.20;;;;;;5061825;28;20451;-79
2023/10/08 08:58:26;;;;;;;3.57;1.00;;;17.70;64.70;;;;;;5060894;28;20459;-79
2023/10/08 09:00:55;;;;;;;4.27;1.57;;;17.70;66.40;;;;;;5063435;28;20550;-79
2023/10/08 09:03:30;;;;;;;3.43;1.00;;;17.70;66.50;;;;;;5060059;28;20517;-80
2023/10/08 09:05:57;;;;;;;3.60;1.40;;;17.60;68.30;;;;;;5057680;28;20462;-79
2023/10/08 09:08:29;;;;;;;3.17;1.10;;;17.60;67.70;;;;;;5062419;28;20751;-80
2023/10/08 09:11:00;;;;;;;4.60;1.53;;;17.60;65.70;;;;;;5053769;28;20480;-79
2023/10/08 09:13:28;;;;;;;11.53;2.10;;;17.70;65.10;;;;;;5062766;28;20537;-79
2023/10/08 09:16:09;;;;;;;4.40;1.00;;;17.70;66.50;;;;;;5052185;28;20928;-80
2023/10/08 09:18:36;;;;;;;5.90;1.30;;;17.70;65.70;;;;;;5056854;28;20460;-79
2023/10/08 09:21:11;;;;;;;5.97;1.40;;;17.70;64.70;;;;;;5063949;28;20440;-79
2023/10/08 09:23:47;;;;;;;3.23;1.20;;;17.80;63.90;;;;;;5044899;28;20491;-80
2023/10/08 09:26:14;;;;;;;6.10;1.57;;;17.90;64.00;;;;;;5060699;28;20455;-79
2023/10/08 09:28:46;;;;;;;4.93;1.97;;;17.80;64.40;;;;;;5055089;28;20480;-79
2023/10/08 09:31:15;;;;;;;9.17;1.90;;;17.80;64.70;;;;;;5063116;28;20447;-79
2023/10/08 09:33:42;;;;;;;3.40;1.87;;;17.80;64.80;;;;;;5051976;28;20473;-79
2023/10/08 09:36:18;;;;;;;1.70;1.50;;;17.80;65.10;;;;;;5059982;28;20903;-79
2023/10/08 09:38:48;;;;;;;4.43;1.63;;;17.80;64.30;;;;;;5054440;28;20467;-79
2023/10/08 09:41:15;;;;;;;5.10;1.40;;;17.80;66.80;;;;;;5059092;28;20739;-79
2023/10/08 09:43:47;;;;;;;6.10;1.70;;;17.70;66.60;;;;;;5056620;28;20557;-79
2023/10/08 09:46:19;;;;;;;2.60;1.77;;;17.60;68.10;;;;;;5055201;28;20473;-80
2023/10/08 09:48:52;;;;;;;3.20;1.37;;;17.60;69.20;;;;;;5051612;28;20459;-80
2023/10/08 09:51:20;;;;;;;4.33;1.80;;;17.50;69.60;;;;;;5063983;28;20458;-80
2023/10/08 09:53:54;;;;;;;5.27;1.60;;;17.50;70.60;;;;;;5060056;28;20479;-79
2023/10/08 09:56:21;;;;;;;2.80;1.87;;;17.60;71.70;;;;;;5049789;28;20901;-79
2023/10/08 09:58:50;;;;;;;9.33;1.30;;;17.70;70.80;;;;;;5055297;28;20508;-80
2023/10/08 10:01:22;;;;;;;2.80;1.43;;;17.80;69.10;;;;;;5059753;28;20466;-79
2023/10/08 10:03:49;;;;;;;2.73;1.40;;;17.90;67.80;;;;;;5052744;28;20939;-79
2023/10/08 10:06:18;;;;;;;5.10;1.10;;;17.90;67.60;;;;;;5057328;28;20568;-80
2023/10/08 10:08:46;;;;;;;8.53;1.87;;;17.80;68.60;;;;;;5060316;28;20756;-80
2023/10/08 10:11:13;;;;;;;4.93;1.30;;;17.90;70.10;;;;;;5060365;28;20475;-79
2023/10/08 10:13:44;;;;;;;3.30;0.97;;;17.80;68.90;;;;;;5061719;28;20941;-80
2023/10/08 10:16:13;;;;;;;2.83;1.03;;;17.90;70.10;;;;;;5060077;28;20459;-80
2023/10/08 10:18:46;;;;;;;4.10;2.07;;;17.90;69.80;;;;;;5061621;28;20455;-80
2023/10/08 10:21:29;;;;;;;4.70;1.30;;;17.90;68.60;;;;;;5065466;28;20530;-80
2023/10/08 10:23:57;;;;;;;4.07;1.43;;;17.90;70.30;;;;;;5058239;28;21014;-79
2023/10/08 10:26:27;;;;;;;5.33;1.43;;;17.80;70.30;;;;;;5061172;28;20907;-80
2023/10/08 10:29:20;;;;;;;3.33;1.00;;;17.80;68.80;;;;;;5060988;28;20502;-79
2023/10/08 10:31:49;;;;;;;3.50;1.50;;;17.80;69.90;;;;;;5059706;28;20538;-79
2023/10/08 10:34:19;;;;;;;6.93;1.80;;;17.70;68.80;;;;;;5057380;28;20464;-80
2023/10/08 10:36:49;;;;;;;6.03;1.40;;;17.70;67.50;;;;;;5053908;28;20534;-79
2023/10/08 10:39:17;;;;;;;2.47;1.47;;;17.70;68.70;;;;;;5064717;28;20471;-80
2023/10/08 10:41:46;;;;;;;3.23;1.37;;;17.70;67.10;;;;;;5064113;28;20494;-79
2023/10/08 10:44:13;;;;;;;3.83;1.70;;;17.70;68.40;;;;;;5065984;28;20553;-80
2023/10/08 10:46:42;;;;;;;2.70;1.20;;;17.70;67.50;;;;;;5059761;28;20548;-79
2023/10/08 10:49:21;;;;;;;4.73;2.37;;;17.80;69.00;;;;;;5062701;28;20905;-80
2023/10/08 10:51:57;;;;;;;4.07;1.50;;;17.80;67.60;;;;;;5060828;28;20762;-80
2023/10/08 10:54:25;;;;;;;4.43;1.20;;;17.80;68.00;;;;;;5063240;28;20929;-79
2023/10/08 10:57:03;;;;;;;7.90;1.57;;;17.70;70.10;;;;;;5068154;28;20480;-80
2023/10/08 10:59:36;;;;;;;3.87;1.70;;;17.60;73.60;;;;;;5065228;28;20447;-80
2023/10/08 11:02:08;;;;;;;4.63;1.93;;;17.50;74.40;;;;;;5060543;28;20483;-80
2023/10/08 11:04:47;;;;;;;9.00;2.10;;;17.40;76.00;;;;;;5063559;28;20483;-79
2023/10/08 11:07:17;;;;;;;3.20;1.10;;;17.40;78.70;;;;;;5064819;28;20478;-79
2023/10/08 11:09:45;;;;;;;7.03;1.87;;;17.30;79.60;;;;;;5065222;28;20523;-80
2023/10/08 11:12:22;;;;;;;3.50;1.63;;;17.30;82.60;;;;;;5066685;28;20448;-80
2023/10/08 11:14:51;;;;;;;4.63;1.30;;;17.30;80.90;;;;;;5065597;28;20900;-79
2023/10/08 11:17:24;;;;;;;2.33;1.20;;;17.30;82.80;;;;;;5061188;28;20543;-79
2023/10/08 11:19:51;;;;;;;2.63;2.00;;;17.40;82.20;;;;;;5060170;28;20554;-80
2023/10/08 11:22:22;;;;;;;11.97;2.17;;;17.50;83.50;;;;;;5062736;28;20939;-80
2023/10/08 11:24:53;;;;;;;5.20;2.10;;;17.60;82.00;;;;;;5059113;28;20493;-79
2023/10/08 11:27:29;;;;;;;9.20;2.57;;;17.60;79.00;;;;;;5058457;28;20455;-79
2023/10/08 11:29:57;;;;;;;3.67;1.10;;;17.60;79.90;;;;;;5056746;28;20542;-79
2023/10/08 11:32:26;;;;;;;5.23;1.63;;;17.70;80.00;;;;;;5056197;28;20455;-79
2023/10/08 11:34:58;;;;;;;3.23;1.20;;;17.70;77.90;;;;;;5048616;28;20536;-80
2023/10/08 11:37:33;;;;;;;6.07;1.80;;;17.70;79.50;;;;;;5060910;28;20464;-79
2023/10/08 11:40:08;;;;;;;3.90;1.20;;;17.80;78.60;;;;;;5059262;28;20564;-80
2023/10/08 11:42:43;;;;;;;5.17;1.63;;;17.90;77.70;;;;;;5056478;28;20826;-79
2023/10/08 11:45:24;;;;;;;2.93;1.43;;;17.90;77.30;;;;;;5062700;28;21194;-80
2023/10/08 11:47:55;;;;;;;3.53;1.30;;;18.00;76.90;;;;;;5055481;28;20475;-80
2023/10/08 11:50:30;;;;;;;2.80;1.50;;;18.00;75.90;;;;;;5059518;28;20550;-79
2023/10/08 11:53:02;;;;;;;4.47;1.93;;;18.00;75.60;;;;;;5061510;28;20950;-80
2023/10/08 11:55:30;;;;;;;3.80;2.83;;;17.90;78.70;;;;;;5063593;28;20458;-80
2023/10/08 11:57:57;;;;;;;4.20;2.17;;;18.00;80.60;;;;;;5064086;28;20456;-80
2023/10/08 12:00:26;;;;;;;4.17;1.37;;;18.00;77.80;;;;;;5067701;28;20444;-80
2023/10/08 12:02:54;;;;;;;4.63;1.60;;;18.00;77.60;;;;;;5047448;28;20579;-80
2023/10/08 12:05:23;;;;;;;5.40;1.90;;;18.00;77.50;;;;;;5065626;28;20601;-80
2023/10/08 12:07:51;;;;;;;11.77;2.77;;;18.10;80.10;;;;;;5070192;28;20456;-80
2023/10/08 12:10:22;;;;;;;5.53;2.30;;;18.00;78.40;;;;;;5056600;28;20563;-80
2023/10/08 12:12:52;;;;;;;5.53;1.50;;;18.00;78.20;;;;;;5064196;28;20544;-80
2023/10/08 12:15:20;;;;;;;4.50;2.53;;;18.00;77.30;;;;;;5064055;28;20958;-80
2023/10/08 12:18:08;;;;;;;2.20;1.10;;;18.10;79.10;;;;;;5061015;28;20538;-80
2023/10/08 12:20:38;;;;;;;4.20;1.37;;;18.20;78.10;;;;;;5062782;28;20463;-80
2023/10/08 12:23:05;;;;;;;4.53;1.43;;;18.20;78.00;;;;;;5061748;28;20471;-79
2023/10/08 12:25:34;;;;;;;4.60;1.80;;;18.30;78.50;;;;;;5064365;28;20563;-79
2023/10/08 12:28:03;;;;;;;3.57;1.93;;;18.30;77.40;;;;;;5062182;28;20464;-80
2023/10/08 12:30:31;;;;;;;9.30;3.07;;;18.30;76.30;;;;;;5061250;28;20517;-79
2023/10/08 12:32:59;;;;;;;7.63;1.83;;;18.30;76.90;;;;;;5062045;28;20774;-80
2023/10/08 12:35:29;;;;;;;2.60;1.30;;;18.40;76.90;;;;;;5063450;28;20630;-79
2023/10/08 12:37:56;;;;;;;3.70;1.30;;;18.40;78.00;;;;;;5061311;28;20930;-80
2023/10/08 12:40:23;;;;;;;2.57;1.70;;;18.30;80.50;;;;;;5059123;28;20547;-80
2023/10/08 12:42:53;;;;;;;6.63;1.87;;;18.30;77.70;;;;;;5064235;28;20515;-80
2023/10/08 12:45:21;;;;;;;6.33;1.30;;;18.20;78.60;;;;;;5060306;28;20958;-80
2023/10/08 12:47:50;;;;;;;5.90;1.63;;;18.20;79.40;;;;;;5061074;28;20455;-79
2023/10/08 12:50:23;;;;;;;3.97;2.60;;;18.20;77.90;;;;;;5066428;28;20534;-80
2023/10/08 12:52:55;;;;;;;4.63;1.70;;;18.20;78.30;;;;;;5060674;28;20486;-79
2023/10/08 12:55:23;;;;;;;5.70;2.70;;;18.20;78.30;;;;;;5068620;28;20523;-80
2023/10/08 12:57:55;;;;;;;6.37;2.57;;;18.10;78.30;;;;;;5070286;28;20528;-80
2023/10/08 13:00:24;;;;;;;3.20;1.37;;;18.00;77.10;;;;;;5063818;28;20462;-79
2023/10/08 13:02:53;;;;;;;12.37;1.40;;;18.10;78.20;;;;;;5061164;28;20487;-79
2023/10/08 13:05:27;;;;;;;4.17;1.70;;;18.10;78.50;;;;;;5066259;28;20852;-79
2023/10/08 13:07:55;;;;;;;4.67;2.37;;;18.10;75.90;;;;;;5057039;28;21026;-79
2023/10/08 13:10:22;;;;;;;1.87;1.73;;;18.00;77.20;;;;;;5062040;28;20472;-79
2023/10/08 13:12:50;;;;;;;7.73;2.90;;;18.10;77.40;;;;;;5054834;28;20510;-79
2023/10/08 13:15:18;;;;;;;11.37;2.30;;;18.10;76.80;;;;;;5072611;28;20460;-79
2023/10/08 13:17:46;;;;;;;4.17;1.03;;;18.10;75.70;;;;;;5057292;28;20440;-79
2023/10/08 13:20:14;;;;;;;4.70;1.77;;;18.10;77.10;;;;;;5063759;28;21181;-79
2023/10/08 13:22:43;;;;;;;1.93;1.20;;;18.00;75.50;;;;;;5065327;28;20471;-79